Strona główna
METAR-TAF:

METAR-TAF

Lotnisko :

Port lotniczy Kajenna-Rochambeu

Kajenna, Gujana Francuska

Szerokość geograficzna: 04-50N, Długość geograficzna: 052-22W, wysokość: 105 m

Aktualna obserwacja pogody

Raport powstał 26 minut temu, godzina 01:00 UTC
Wiatr 4 kt od wschód, zmienny między północny wschód i wschód
Temperatura 27°C
Wilgotność 89%
Ciśnienie 1012 hPa
Widzialność 10 km lub więcej
Przerywane chmury na wysokości 1800 ft

METAR: SOCA 170100Z AUTO 08004KT 040V100 9999 BKN018 27/25 Q1012 NOSIG

czas: 22:26 (01:26 UTC)

Prognoza

Raport powstał 3 godziny i 26 minut temu, godzina 22:00 UTC
Prognoza ważna od 17 godzina 00 UTC do 17 godzina 24 UTC
Wiatr 3 kt z kierunków zmiennych
Widzialność 10 km lub więcej
Brak chmur poniżej 1500 m i brak chmur cumulonimbus
Stopniowe zmiany
od 17 godzina 12 UTC do 17 godzina 14 UTC
Wiatr 10 kt od wschód

TAF: SOCA 162200Z 1700/1724 VRB03KT CAVOK BECMG 1712/1714 10010KT

Obserwacja i prognoza pogody dla ponad 4000 lotnisk (raport METAR i TAF).

Dostępne stacje oznaczono żółtymi i czerwonymi punktami na mapie.

Najedź kursorem aby zobaczyć nazwę stacji.

Kliknij aby zobaczyć obserwacje i prognozy pogody.

Aby zmienić mapę: kliknij na zielony przycisk z czarnym krzyżykiem, aby powiększyć; na zielony przycisk z myślnikiem, aby pomniejszyć; na zielone strzałki, aby przejść do map sąsiednich.


METAR-TAF: